sensor_id;sensor_type;location;lat;lon;timestamp;pressure;altitude;pressure_sealevel;temperature;humidity
71638;BME280;59485;43.542;-5.676;2022-11-15T00:00:52;100692.50;;;13.04;99.94
71638;BME280;59485;43.542;-5.676;2022-11-15T00:03:19;100676.00;;;13.04;99.77
71638;BME280;59485;43.542;-5.676;2022-11-15T00:05:46;100668.41;;;13.06;100.00
71638;BME280;59485;43.542;-5.676;2022-11-15T00:08:11;100659.50;;;13.10;99.86
71638;BME280;59485;43.542;-5.676;2022-11-15T00:10:37;100636.44;;;13.11;99.29
71638;BME280;59485;43.542;-5.676;2022-11-15T00:13:11;100629.00;;;13.12;99.13
71638;BME280;59485;43.542;-5.676;2022-11-15T00:15:40;100627.78;;;13.14;99.58
71638;BME280;59485;43.542;-5.676;2022-11-15T00:18:12;100632.22;;;13.15;99.61
71638;BME280;59485;43.542;-5.676;2022-11-15T00:20:40;100619.72;;;13.13;99.28
71638;BME280;59485;43.542;-5.676;2022-11-15T00:23:06;100623.50;;;13.12;98.76
71638;BME280;59485;43.542;-5.676;2022-11-15T00:25:32;100613.56;;;13.11;99.30
71638;BME280;59485;43.542;-5.676;2022-11-15T00:27:59;100617.84;;;13.13;98.81
71638;BME280;59485;43.542;-5.676;2022-11-15T00:30:25;100611.88;;;13.17;98.46
71638;BME280;59485;43.542;-5.676;2022-11-15T00:32:51;100609.38;;;13.15;99.32
71638;BME280;59485;43.542;-5.676;2022-11-15T00:35:18;100585.00;;;13.19;99.44
71638;BME280;59485;43.542;-5.676;2022-11-15T00:37:44;100576.56;;;13.13;100.00
71638;BME280;59485;43.542;-5.676;2022-11-15T00:40:10;100583.91;;;13.06;100.00
71638;BME280;59485;43.542;-5.676;2022-11-15T00:42:35;100569.72;;;13.09;100.00
71638;BME280;59485;43.542;-5.676;2022-11-15T00:45:01;100573.59;;;13.15;100.00
71638;BME280;59485;43.542;-5.676;2022-11-15T00:47:27;100557.47;;;13.12;100.00
71638;BME280;59485;43.542;-5.676;2022-11-15T00:49:52;100563.41;;;13.15;100.00
71638;BME280;59485;43.542;-5.676;2022-11-15T00:52:18;100558.97;;;13.14;100.00
71638;BME280;59485;43.542;-5.676;2022-11-15T00:54:44;100563.41;;;13.15;100.00
71638;BME280;59485;43.542;-5.676;2022-11-15T00:57:10;100563.38;;;13.09;100.00
71638;BME280;59485;43.542;-5.676;2022-11-15T00:59:36;100556.38;;;13.06;100.00
71638;BME280;59485;43.542;-5.676;2022-11-15T01:02:01;100564.63;;;13.06;100.00
71638;BME280;59485;43.542;-5.676;2022-11-15T01:04:27;100570.59;;;13.03;100.00
71638;BME280;59485;43.542;-5.676;2022-11-15T01:06:53;100574.41;;;13.02;100.00
71638;BME280;59485;43.542;-5.676;2022-11-15T01:09:19;100566.34;;;13.01;100.00
71638;BME280;59485;43.542;-5.676;2022-11-15T01:11:44;100567.19;;;13.01;100.00
71638;BME280;59485;43.542;-5.676;2022-11-15T01:14:10;100570.59;;;13.03;100.00
71638;BME280;59485;43.542;-5.676;2022-11-15T01:16:36;100576.50;;;13.07;100.00
71638;BME280;59485;43.542;-5.676;2022-11-15T01:19:01;100573.53;;;13.08;100.00
71638;BME280;59485;43.542;-5.676;2022-11-15T01:21:27;100563.19;;;13.10;100.00
71638;BME280;59485;43.542;-5.676;2022-11-15T01:23:54;100569.75;;;13.16;100.00
71638;BME280;59485;43.542;-5.676;2022-11-15T01:26:20;100557.28;;;13.13;100.00
71638;BME280;59485;43.542;-5.676;2022-11-15T01:28:46;100561.50;;;13.16;100.00
71638;BME280;59485;43.542;-5.676;2022-11-15T01:31:14;100567.00;;;13.16;100.00
71638;BME280;59485;43.542;-5.676;2022-11-15T01:33:40;100562.59;;;13.15;100.00
71638;BME280;59485;43.542;-5.676;2022-11-15T01:36:08;100558.97;;;13.14;100.00
71638;BME280;59485;43.542;-5.676;2022-11-15T01:38:35;100553.22;;;13.09;100.00
71638;BME280;59485;43.542;-5.676;2022-11-15T01:41:00;100557.28;;;13.13;100.00
71638;BME280;59485;43.542;-5.676;2022-11-15T01:43:32;100552.81;;;13.19;100.00
71638;BME280;59485;43.542;-5.676;2022-11-15T01:48:52;100524.66;;;13.17;100.00
71638;BME280;59485;43.542;-5.676;2022-11-15T01:51:21;100519.78;;;13.19;100.00
71638;BME280;59485;43.542;-5.676;2022-11-15T01:53:53;100520.22;;;13.23;100.00
71638;BME280;59485;43.542;-5.676;2022-11-15T01:56:24;100519.56;;;13.27;100.00
71638;BME280;59485;43.542;-5.676;2022-11-15T01:58:51;100506.44;;;13.29;100.00
71638;BME280;59485;43.542;-5.676;2022-11-15T02:01:19;100496.06;;;13.31;100.00
71638;BME280;59485;43.542;-5.676;2022-11-15T02:04:05;100484.63;;;13.41;100.00
71638;BME280;59485;43.542;-5.676;2022-11-15T02:06:34;100477.59;;;13.45;99.80
71638;BME280;59485;43.542;-5.676;2022-11-15T02:09:00;100472.09;;;13.45;99.89
71638;BME280;59485;43.542;-5.676;2022-11-15T02:11:25;100480.56;;;13.43;100.00
71638;BME280;59485;43.542;-5.676;2022-11-15T02:13:51;100482.25;;;13.44;99.75
71638;BME280;59485;43.542;-5.676;2022-11-15T02:19:02;100467.84;;;13.49;98.16
71638;BME280;59485;43.542;-5.676;2022-11-15T02:21:42;100458.06;;;13.53;99.18
71638;BME280;59485;43.542;-5.676;2022-11-15T02:43:10;100418.06;;;13.44;99.58
71638;BME280;59485;43.542;-5.676;2022-11-15T02:49:08;100416.84;;;13.40;100.00
71638;BME280;59485;43.542;-5.676;2022-11-15T02:51:35;100422.97;;;13.42;100.00
71638;BME280;59485;43.542;-5.676;2022-11-15T02:54:00;100433.53;;;13.45;100.00
71638;BME280;59485;43.542;-5.676;2022-11-15T02:56:26;100416.41;;;13.36;100.00
71638;BME280;59485;43.542;-5.676;2022-11-15T02:59:19;100400.78;;;13.30;100.00
71638;BME280;59485;43.542;-5.676;2022-11-15T03:04:40;100382.75;;;13.34;100.00
71638;BME280;59485;43.542;-5.676;2022-11-15T03:07:18;100362.00;;;13.38;100.00
71638;BME280;59485;43.542;-5.676;2022-11-15T03:12:48;100355.16;;;13.47;100.00
71638;BME280;59485;43.542;-5.676;2022-11-15T03:15:50;100356.66;;;13.50;100.00
71638;BME280;59485;43.542;-5.676;2022-11-15T03:18:16;100343.25;;;13.53;100.00
71638;BME280;59485;43.542;-5.676;2022-11-15T03:20:45;100340.09;;;13.57;100.00
71638;BME280;59485;43.542;-5.676;2022-11-15T03:23:13;100340.72;;;13.59;100.00
71638;BME280;59485;43.542;-5.676;2022-11-15T03:25:42;100337.13;;;13.58;100.00
71638;BME280;59485;43.542;-5.676;2022-11-15T03:28:11;100331.16;;;13.61;100.00
71638;BME280;59485;43.542;-5.676;2022-11-15T03:30:39;100317.22;;;13.56;100.00
71638;BME280;59485;43.542;-5.676;2022-11-15T03:33:06;100315.72;;;13.53;100.00
71638;BME280;59485;43.542;-5.676;2022-11-15T03:35:36;100294.31;;;13.56;100.00
71638;BME280;59485;43.542;-5.676;2022-11-15T03:38:19;100292.56;;;13.68;100.00
71638;BME280;59485;43.542;-5.676;2022-11-15T03:41:01;100275.34;;;13.72;100.00
71638;BME280;59485;43.542;-5.676;2022-11-15T03:46:00;100273.84;;;13.76;100.00
71638;BME280;59485;43.542;-5.676;2022-11-15T03:48:39;100270.03;;;13.77;100.00
71638;BME280;59485;43.542;-5.676;2022-11-15T03:51:06;100287.78;;;13.81;98.06
71638;BME280;59485;43.542;-5.676;2022-11-15T03:53:32;100282.28;;;13.81;98.46
71638;BME280;59485;43.542;-5.676;2022-11-15T03:55:58;100285.66;;;13.83;99.06
71638;BME280;59485;43.542;-5.676;2022-11-15T03:58:23;100292.84;;;13.84;100.00
71638;BME280;59485;43.542;-5.676;2022-11-15T04:00:49;100283.06;;;13.88;100.00
71638;BME280;59485;43.542;-5.676;2022-11-15T04:03:14;100287.69;;;13.95;100.00
71638;BME280;59485;43.542;-5.676;2022-11-15T04:05:40;100272.03;;;13.88;100.00
71638;BME280;59485;43.542;-5.676;2022-11-15T04:08:05;100266.38;;;13.83;100.00
71638;BME280;59485;43.542;-5.676;2022-11-15T04:10:31;100259.81;;;13.84;100.00
71638;BME280;59485;43.542;-5.676;2022-11-15T04:12:56;100253.78;;;13.94;100.00
71638;BME280;59485;43.542;-5.676;2022-11-15T04:15:23;100257.13;;;13.96;100.00
71638;BME280;59485;43.542;-5.676;2022-11-15T04:17:52;100246.75;;;13.98;100.00
71638;BME280;59485;43.542;-5.676;2022-11-15T04:20:24;100236.84;;;13.90;100.00
71638;BME280;59485;43.542;-5.676;2022-11-15T04:23:12;100239.38;;;13.92;100.00
71638;BME280;59485;43.542;-5.676;2022-11-15T04:25:59;100244.81;;;13.99;100.00
71638;BME280;59485;43.542;-5.676;2022-11-15T04:28:25;100235.50;;;14.00;100.00
71638;BME280;59485;43.542;-5.676;2022-11-15T04:30:51;100227.38;;;14.05;100.00
71638;BME280;59485;43.542;-5.676;2022-11-15T04:33:16;100218.03;;;14.06;100.00
71638;BME280;59485;43.542;-5.676;2022-11-15T04:35:42;100188.50;;;13.95;100.00
71638;BME280;59485;43.542;-5.676;2022-11-15T04:38:09;100170.09;;;13.88;100.00
71638;BME280;59485;43.542;-5.676;2022-11-15T04:40:36;100162.22;;;13.92;100.00
71638;BME280;59485;43.542;-5.676;2022-11-15T04:43:03;100168.38;;;13.94;100.00
71638;BME280;59485;43.542;-5.676;2022-11-15T04:45:30;100161.22;;;14.05;100.00
71638;BME280;59485;43.542;-5.676;2022-11-15T04:47:55;100165.00;;;14.10;100.00
71638;BME280;59485;43.542;-5.676;2022-11-15T04:50:21;100160.97;;;14.13;100.00
71638;BME280;59485;43.542;-5.676;2022-11-15T04:52:53;100152.69;;;14.13;100.00
71638;BME280;59485;43.542;-5.676;2022-11-15T04:55:19;100162.47;;;14.09;100.00
71638;BME280;59485;43.542;-5.676;2022-11-15T04:57:44;100171.72;;;14.14;100.00
71638;BME280;59485;43.542;-5.676;2022-11-15T05:00:13;100171.59;;;14.09;100.00
71638;BME280;59485;43.542;-5.676;2022-11-15T05:02:39;100155.03;;;13.91;100.00
71638;BME280;59485;43.542;-5.676;2022-11-15T05:05:23;100164.44;;;13.83;100.00
71638;BME280;59485;43.542;-5.676;2022-11-15T05:07:49;100159.69;;;13.90;100.00
71638;BME280;59485;43.542;-5.676;2022-11-15T05:10:14;100140.13;;;13.99;100.00
71638;BME280;59485;43.542;-5.676;2022-11-15T05:12:40;100130.09;;;14.04;100.00
71638;BME280;59485;43.542;-5.676;2022-11-15T05:15:06;100127.72;;;14.08;100.00
71638;BME280;59485;43.542;-5.676;2022-11-15T05:17:31;100123.91;;;14.09;100.00
71638;BME280;59485;43.542;-5.676;2022-11-15T05:19:57;100117.75;;;14.07;100.00
71638;BME280;59485;43.542;-5.676;2022-11-15T05:22:22;100127.25;;;14.11;100.00
71638;BME280;59485;43.542;-5.676;2022-11-15T05:24:48;100135.84;;;14.03;100.00
71638;BME280;59485;43.542;-5.676;2022-11-15T05:27:13;100131.75;;;14.05;100.00
71638;BME280;59485;43.542;-5.676;2022-11-15T05:29:39;100125.72;;;14.15;100.00
71638;BME280;59485;43.542;-5.676;2022-11-15T05:32:06;100121.59;;;14.24;99.15
71638;BME280;59485;43.542;-5.676;2022-11-15T05:34:33;100125.34;;;14.30;97.83
71638;BME280;59485;43.542;-5.676;2022-11-15T05:36:58;100125.50;;;14.35;98.66
71638;BME280;59485;43.542;-5.676;2022-11-15T05:39:24;100119.75;;;14.36;100.00
71638;BME280;59485;43.542;-5.676;2022-11-15T05:41:57;100124.84;;;14.39;99.95
71638;BME280;59485;43.542;-5.676;2022-11-15T05:44:25;100114.41;;;14.41;97.06
71638;BME280;59485;43.542;-5.676;2022-11-15T05:46:53;100115.78;;;14.50;95.11
71638;BME280;59485;43.542;-5.676;2022-11-15T05:49:24;100110.41;;;14.55;94.68
71638;BME280;59485;43.542;-5.676;2022-11-15T05:51:52;100108.63;;;14.61;95.55
71638;BME280;59485;43.542;-5.676;2022-11-15T05:54:19;100115.38;;;14.65;95.72
71638;BME280;59485;43.542;-5.676;2022-11-15T05:56:45;100110.59;;;14.72;94.69
71638;BME280;59485;43.542;-5.676;2022-11-15T05:59:11;100105.59;;;14.81;90.91
71638;BME280;59485;43.542;-5.676;2022-11-15T06:01:40;100114.00;;;14.86;91.38
71638;BME280;59485;43.542;-5.676;2022-11-15T06:04:06;100107.06;;;14.95;89.48
71638;BME280;59485;43.542;-5.676;2022-11-15T06:06:31;100111.19;;;15.04;87.00
71638;BME280;59485;43.542;-5.676;2022-11-15T06:08:57;100119.88;;;15.19;85.00
71638;BME280;59485;43.542;-5.676;2022-11-15T06:11:23;100109.94;;;15.30;85.34
71638;BME280;59485;43.542;-5.676;2022-11-15T06:13:48;100124.25;;;15.38;87.31
71638;BME280;59485;43.542;-5.676;2022-11-15T06:16:14;100111.84;;;15.41;86.89
71638;BME280;59485;43.542;-5.676;2022-11-15T06:18:39;100110.09;;;15.47;86.17
71638;BME280;59485;43.542;-5.676;2022-11-15T06:21:05;100108.28;;;15.52;87.15
71638;BME280;59485;43.542;-5.676;2022-11-15T06:23:34;100107.06;;;15.48;88.57
71638;BME280;59485;43.542;-5.676;2022-11-15T06:26:02;100109.13;;;15.53;86.37
71638;BME280;59485;43.542;-5.676;2022-11-15T06:28:29;100109.34;;;15.51;85.88
71638;BME280;59485;43.542;-5.676;2022-11-15T06:30:55;100123.09;;;15.69;80.31
71638;BME280;59485;43.542;-5.676;2022-11-15T06:33:20;100124.41;;;15.79;82.16
71638;BME280;59485;43.542;-5.676;2022-11-15T06:35:46;100107.47;;;15.75;83.54
71638;BME280;59485;43.542;-5.676;2022-11-15T06:38:11;100111.56;;;15.72;86.09
71638;BME280;59485;43.542;-5.676;2022-11-15T06:40:38;100118.41;;;15.82;79.01
71638;BME280;59485;43.542;-5.676;2022-11-15T06:43:05;100114.44;;;16.01;77.59
71638;BME280;59485;43.542;-5.676;2022-11-15T06:45:31;100140.16;;;16.01;78.43
71638;BME280;59485;43.542;-5.676;2022-11-15T06:47:57;100172.38;;;16.07;80.39
71638;BME280;59485;43.542;-5.676;2022-11-15T06:50:23;100194.94;;;16.04;84.54
71638;BME280;59485;43.542;-5.676;2022-11-15T06:52:48;100220.44;;;16.06;82.65
71638;BME280;59485;43.542;-5.676;2022-11-15T06:55:14;100245.34;;;16.18;81.00
71638;BME280;59485;43.542;-5.676;2022-11-15T06:57:50;100257.34;;;16.12;86.38
71638;BME280;59485;43.542;-5.676;2022-11-15T07:00:18;100227.06;;;16.05;86.29
71638;BME280;59485;43.542;-5.676;2022-11-15T07:02:44;100242.91;;;15.98;86.56
71638;BME280;59485;43.542;-5.676;2022-11-15T07:05:09;100274.19;;;15.99;86.66
71638;BME280;59485;43.542;-5.676;2022-11-15T07:07:35;100264.66;;;15.83;89.22
71638;BME280;59485;43.542;-5.676;2022-11-15T07:10:01;100271.00;;;15.72;94.24
71638;BME280;59485;43.542;-5.676;2022-11-15T07:12:26;100267.97;;;15.62;97.73
71638;BME280;59485;43.542;-5.676;2022-11-15T07:14:52;100279.78;;;15.51;97.22
71638;BME280;59485;43.542;-5.676;2022-11-15T07:17:17;100340.88;;;15.43;96.51
71638;BME280;59485;43.542;-5.676;2022-11-15T07:19:43;100387.94;;;15.18;100.00
71638;BME280;59485;43.542;-5.676;2022-11-15T07:22:08;100383.41;;;14.62;100.00
71638;BME280;59485;43.542;-5.676;2022-11-15T07:24:33;100421.97;;;14.12;100.00
71638;BME280;59485;43.542;-5.676;2022-11-15T07:26:59;100441.25;;;13.74;100.00
71638;BME280;59485;43.542;-5.676;2022-11-15T07:29:24;100461.22;;;13.63;100.00
71638;BME280;59485;43.542;-5.676;2022-11-15T07:31:50;100483.47;;;13.68;100.00
71638;BME280;59485;43.542;-5.676;2022-11-15T07:34:16;100519.63;;;13.78;100.00
71638;BME280;59485;43.542;-5.676;2022-11-15T07:36:41;100504.63;;;13.74;100.00
71638;BME280;59485;43.542;-5.676;2022-11-15T07:39:07;100519.69;;;13.65;100.00
71638;BME280;59485;43.542;-5.676;2022-11-15T07:41:32;100520.78;;;13.58;100.00
71638;BME280;59485;43.542;-5.676;2022-11-15T07:43:58;100552.78;;;13.52;100.00
71638;BME280;59485;43.542;-5.676;2022-11-15T07:46:23;100527.81;;;13.40;100.00
71638;BME280;59485;43.542;-5.676;2022-11-15T07:48:49;100510.22;;;13.35;100.00
71638;BME280;59485;43.542;-5.676;2022-11-15T07:51:15;100555.34;;;13.27;100.00
71638;BME280;59485;43.542;-5.676;2022-11-15T07:53:44;100570.81;;;13.22;100.00
71638;BME280;59485;43.542;-5.676;2022-11-15T07:56:10;100586.28;;;13.23;100.00
71638;BME280;59485;43.542;-5.676;2022-11-15T07:58:36;100570.19;;;13.20;100.00
71638;BME280;59485;43.542;-5.676;2022-11-15T08:01:04;100552.81;;;13.19;100.00
71638;BME280;59485;43.542;-5.676;2022-11-15T08:03:30;100578.84;;;13.17;100.00
71638;BME280;59485;43.542;-5.676;2022-11-15T08:05:55;100593.91;;;13.14;100.00
71638;BME280;59485;43.542;-5.676;2022-11-15T08:08:21;100563.19;;;13.10;100.00
71638;BME280;59485;43.542;-5.676;2022-11-15T08:10:47;100580.31;;;13.12;100.00
71638;BME280;59485;43.542;-5.676;2022-11-15T08:13:13;100569.16;;;13.14;100.00
71638;BME280;59485;43.542;-5.676;2022-11-15T08:15:39;100569.31;;;13.12;100.00
71638;BME280;59485;43.542;-5.676;2022-11-15T08:18:11;100575.50;;;13.14;100.00
71638;BME280;59485;43.542;-5.676;2022-11-15T08:20:37;100554.06;;;13.10;100.00
71638;BME280;59485;43.542;-5.676;2022-11-15T08:23:03;100562.78;;;13.13;100.00
71638;BME280;59485;43.542;-5.676;2022-11-15T08:25:31;100549.03;;;13.13;100.00
71638;BME280;59485;43.542;-5.676;2022-11-15T08:28:00;100574.66;;;13.14;100.00
71638;BME280;59485;43.542;-5.676;2022-11-15T08:30:26;100562.97;;;13.12;100.00
71638;BME280;59485;43.542;-5.676;2022-11-15T08:32:53;100558.72;;;13.09;100.00
71638;BME280;59485;43.542;-5.676;2022-11-15T08:35:20;100553.22;;;13.03;100.00
71638;BME280;59485;43.542;-5.676;2022-11-15T08:37:46;100560.84;;;13.01;100.00
71638;BME280;59485;43.542;-5.676;2022-11-15T08:40:11;100551.75;;;13.00;100.00
71638;BME280;59485;43.542;-5.676;2022-11-15T08:42:38;100566.16;;;12.96;100.00
71638;BME280;59485;43.542;-5.676;2022-11-15T08:45:04;100547.72;;;12.90;100.00
71638;BME280;59485;43.542;-5.676;2022-11-15T08:47:30;100556.19;;;12.88;100.00
71638;BME280;59485;43.542;-5.676;2022-11-15T08:49:55;100560.41;;;12.91;100.00
71638;BME280;59485;43.542;-5.676;2022-11-15T08:52:21;100547.31;;;12.86;100.00
71638;BME280;59485;43.542;-5.676;2022-11-15T08:54:47;100536.72;;;12.90;100.00
71638;BME280;59485;43.542;-5.676;2022-11-15T08:57:13;100535.25;;;12.87;100.00
71638;BME280;59485;43.542;-5.676;2022-11-15T08:59:38;100546.47;;;12.86;100.00
71638;BME280;59485;43.542;-5.676;2022-11-15T09:02:04;100534.59;;;12.92;100.00
71638;BME280;59485;43.542;-5.676;2022-11-15T09:04:30;100557.25;;;12.94;100.00
71638;BME280;59485;43.542;-5.676;2022-11-15T09:06:56;100541.59;;;12.94;100.00
71638;BME280;59485;43.542;-5.676;2022-11-15T09:09:21;100553.44;;;13.01;100.00
71638;BME280;59485;43.542;-5.676;2022-11-15T09:11:47;100565.09;;;13.03;100.00
71638;BME280;59485;43.542;-5.676;2022-11-15T09:14:13;100594.09;;;13.06;100.00
71638;BME280;59485;43.542;-5.676;2022-11-15T09:16:39;100597.25;;;13.09;100.00
71638;BME280;59485;43.542;-5.676;2022-11-15T09:19:05;100585.84;;;13.12;100.00
71638;BME280;59485;43.542;-5.676;2022-11-15T09:21:30;100582.00;;;13.07;100.00
71638;BME280;59485;43.542;-5.676;2022-11-15T09:23:56;100590.91;;;13.02;100.00
71638;BME280;59485;43.542;-5.676;2022-11-15T09:26:22;100593.66;;;13.09;100.00
71638;BME280;59485;43.542;-5.676;2022-11-15T09:28:47;100616.31;;;13.04;100.00
71638;BME280;59485;43.542;-5.676;2022-11-15T09:31:13;100600.66;;;13.05;100.00
71638;BME280;59485;43.542;-5.676;2022-11-15T09:33:39;100605.91;;;13.06;100.00
71638;BME280;59485;43.542;-5.676;2022-11-15T09:36:07;100601.50;;;13.05;100.00
71638;BME280;59485;43.542;-5.676;2022-11-15T09:38:34;100601.50;;;13.05;100.00
71638;BME280;59485;43.542;-5.676;2022-11-15T09:41:22;100609.09;;;13.10;100.00
71638;BME280;59485;43.542;-5.676;2022-11-15T09:49:58;100600.41;;;13.00;100.00
71638;BME280;59485;43.542;-5.676;2022-11-15T09:52:24;100604.88;;;12.94;100.00
71638;BME280;59485;43.542;-5.676;2022-11-15T09:54:51;100607.41;;;13.02;100.00
71638;BME280;59485;43.542;-5.676;2022-11-15T09:57:29;100603.59;;;13.10;100.00
71638;BME280;59485;43.542;-5.676;2022-11-15T10:05:13;100609.75;;;13.05;100.00
71638;BME280;59485;43.542;-5.676;2022-11-15T10:10:49;100600.22;;;12.95;100.00
71638;BME280;59485;43.542;-5.676;2022-11-15T10:13:26;100598.53;;;12.94;100.00
71638;BME280;59485;43.542;-5.676;2022-11-15T10:16:00;100601.06;;;13.02;100.00
71638;BME280;59485;43.542;-5.676;2022-11-15T10:19:01;100586.44;;;13.08;100.00
71638;BME280;59485;43.542;-5.676;2022-11-15T10:24:19;100588.19;;;13.29;100.00
71638;BME280;59485;43.542;-5.676;2022-11-15T10:26:48;100592.63;;;13.30;100.00
71638;BME280;59485;43.542;-5.676;2022-11-15T10:29:21;100590.06;;;13.35;100.00
71638;BME280;59485;43.542;-5.676;2022-11-15T10:31:47;100589.84;;;13.43;100.00
71638;BME280;59485;43.542;-5.676;2022-11-15T10:34:16;100592.16;;;13.52;100.00
71638;BME280;59485;43.542;-5.676;2022-11-15T10:37:00;100581.16;;;13.59;100.00
71638;BME280;59485;43.542;-5.676;2022-11-15T10:39:27;100593.22;;;13.65;100.00
71638;BME280;59485;43.542;-5.676;2022-11-15T10:41:53;100595.75;;;13.73;100.00
71638;BME280;59485;43.542;-5.676;2022-11-15T10:44:22;100591.06;;;13.86;100.00
71638;BME280;59485;43.542;-5.676;2022-11-15T10:47:04;100594.19;;;13.97;100.00
71638;BME280;59485;43.542;-5.676;2022-11-15T10:49:32;100605.81;;;14.12;100.00
71638;BME280;59485;43.542;-5.676;2022-11-15T10:52:15;100599.19;;;14.19;100.00
71638;BME280;59485;43.542;-5.676;2022-11-15T10:54:48;100603.19;;;14.30;100.00
71638;BME280;59485;43.542;-5.676;2022-11-15T10:57:29;100587.88;;;14.41;100.00
71638;BME280;59485;43.542;-5.676;2022-11-15T11:00:06;100584.22;;;14.53;100.00
71638;BME280;59485;43.542;-5.676;2022-11-15T11:02:43;100565.69;;;14.60;100.00
71638;BME280;59485;43.542;-5.676;2022-11-15T11:05:37;100568.47;;;14.60;100.00
71638;BME280;59485;43.542;-5.676;2022-11-15T11:08:17;100570.34;;;14.67;100.00
71638;BME280;59485;43.542;-5.676;2022-11-15T11:10:58;100570.09;;;14.75;100.00
71638;BME280;59485;43.542;-5.676;2022-11-15T11:13:31;100579.16;;;14.82;100.00
71638;BME280;59485;43.542;-5.676;2022-11-15T11:24:45;100545.13;;;14.88;100.00
71638;BME280;59485;43.542;-5.676;2022-11-15T11:30:30;100512.25;;;15.11;100.00
71638;BME280;59485;43.542;-5.676;2022-11-15T11:33:12;100500.00;;;15.25;100.00
71638;BME280;59485;43.542;-5.676;2022-11-15T11:46:47;100450.44;;;15.85;100.00
71638;BME280;59485;43.542;-5.676;2022-11-15T11:49:34;100454.03;;;15.86;97.48
71638;BME280;59485;43.542;-5.676;2022-11-15T11:52:23;100439.38;;;15.85;89.91
71638;BME280;59485;43.542;-5.676;2022-11-15T11:55:02;100425.50;;;16.03;87.02
71638;BME280;59485;43.542;-5.676;2022-11-15T11:57:44;100423.53;;;16.22;78.56
71638;BME280;59485;43.542;-5.676;2022-11-15T12:00:26;100441.25;;;16.33;79.52
71638;BME280;59485;43.542;-5.676;2022-11-15T12:05:51;100420.34;;;16.48;77.36
71638;BME280;59485;43.542;-5.676;2022-11-15T12:09:11;100442.66;;;16.65;72.87
71638;BME280;59485;43.542;-5.676;2022-11-15T12:17:10;100417.41;;;16.85;73.17
71638;BME280;59485;43.542;-5.676;2022-11-15T12:19:37;100416.22;;;16.93;70.56
71638;BME280;59485;43.542;-5.676;2022-11-15T12:22:47;100408.50;;;17.06;66.54
71638;BME280;59485;43.542;-5.676;2022-11-15T12:25:24;100414.16;;;17.23;65.47
71638;BME280;59485;43.542;-5.676;2022-11-15T12:28:01;100413.53;;;17.44;61.71
71638;BME280;59485;43.542;-5.676;2022-11-15T12:30:43;100406.28;;;17.43;62.41
71638;BME280;59485;43.542;-5.676;2022-11-15T12:33:36;100412.28;;;17.52;60.18
71638;BME280;59485;43.542;-5.676;2022-11-15T12:36:05;100397.34;;;17.65;60.01
71638;BME280;59485;43.542;-5.676;2022-11-15T12:38:52;100413.53;;;17.84;56.69
71638;BME280;59485;43.542;-5.676;2022-11-15T12:41:29;100414.63;;;17.83;56.96
71638;BME280;59485;43.542;-5.676;2022-11-15T12:43:55;100404.09;;;17.97;57.21
71638;BME280;59485;43.542;-5.676;2022-11-15T12:48:55;100393.88;;;18.14;54.46
71638;BME280;59485;43.542;-5.676;2022-11-15T12:54:49;100390.16;;;18.25;51.68
71638;BME280;59485;43.542;-5.676;2022-11-15T12:59:57;100378.25;;;18.25;54.75
71638;BME280;59485;43.542;-5.676;2022-11-15T13:02:36;100377.75;;;18.28;54.66
71638;BME280;59485;43.542;-5.676;2022-11-15T13:08:01;100376.56;;;18.24;54.65
71638;BME280;59485;43.542;-5.676;2022-11-15T13:15:55;100386.47;;;18.20;53.52
71638;BME280;59485;43.542;-5.676;2022-11-15T13:18:37;100390.34;;;18.19;53.25
71638;BME280;59485;43.542;-5.676;2022-11-15T13:21:05;100388.41;;;18.19;54.75
71638;BME280;59485;43.542;-5.676;2022-11-15T13:24:02;100371.75;;;18.19;54.68
71638;BME280;59485;43.542;-5.676;2022-11-15T13:26:28;100377.56;;;18.18;55.24
71638;BME280;59485;43.542;-5.676;2022-11-15T13:28:53;100377.31;;;18.19;55.86
71638;BME280;59485;43.542;-5.676;2022-11-15T13:31:34;100376.22;;;18.20;54.22
71638;BME280;59485;43.542;-5.676;2022-11-15T13:34:13;100369.00;;;18.19;56.57
71638;BME280;59485;43.542;-5.676;2022-11-15T13:36:41;100366.22;;;18.19;53.98
71638;BME280;59485;43.542;-5.676;2022-11-15T13:41:53;100374.88;;;18.23;55.18
71638;BME280;59485;43.542;-5.676;2022-11-15T13:44:21;100359.09;;;18.23;54.54
71638;BME280;59485;43.542;-5.676;2022-11-15T13:46:47;100370.44;;;18.22;55.51
71638;BME280;59485;43.542;-5.676;2022-11-15T13:49:13;100371.50;;;18.21;55.45
71638;BME280;59485;43.542;-5.676;2022-11-15T13:56:45;100371.69;;;18.31;53.38
71638;BME280;59485;43.542;-5.676;2022-11-15T14:01:44;100351.78;;;18.51;53.76
71638;BME280;59485;43.542;-5.676;2022-11-15T14:04:13;100364.41;;;18.58;54.79
71638;BME280;59485;43.542;-5.676;2022-11-15T14:06:48;100342.59;;;18.50;53.70
71638;BME280;59485;43.542;-5.676;2022-11-15T14:11:54;100351.50;;;18.35;54.70
71638;BME280;59485;43.542;-5.676;2022-11-15T14:14:23;100353.97;;;18.32;54.29
71638;BME280;59485;43.542;-5.676;2022-11-15T14:16:57;100360.84;;;18.29;55.28
71638;BME280;59485;43.542;-5.676;2022-11-15T14:24:35;100347.75;;;18.42;56.21
71638;BME280;59485;43.542;-5.676;2022-11-15T14:27:22;100353.13;;;18.48;55.63
71638;BME280;59485;43.542;-5.676;2022-11-15T14:29:48;100356.41;;;18.62;55.88
71638;BME280;59485;43.542;-5.676;2022-11-15T14:32:22;100341.78;;;18.66;55.74
71638;BME280;59485;43.542;-5.676;2022-11-15T14:34:59;100363.97;;;18.83;55.31
71638;BME280;59485;43.542;-5.676;2022-11-15T14:37:27;100383.84;;;18.75;55.23
71638;BME280;59485;43.542;-5.676;2022-11-15T14:39:54;100367.34;;;18.85;54.61
71638;BME280;59485;43.542;-5.676;2022-11-15T14:42:21;100359.91;;;18.91;54.39
71638;BME280;59485;43.542;-5.676;2022-11-15T14:44:47;100360.31;;;18.99;55.36